createdAt,value
2022-07-27T00:01:58.644Z,2.05
2022-07-27T00:04:26.106Z,1.90
2022-07-27T00:06:54.511Z,1.77
2022-07-27T00:09:22.362Z,1.42
2022-07-27T00:11:50.053Z,2.15
2022-07-27T00:14:17.503Z,1.75
2022-07-27T00:16:44.964Z,1.33
2022-07-27T00:19:12.765Z,1.42
2022-07-27T00:21:44.649Z,1.58
2022-07-27T00:24:13.712Z,1.55
2022-07-27T00:26:41.292Z,1.90
2022-07-27T00:29:09.141Z,2.13
2022-07-27T00:31:36.824Z,1.63
2022-07-27T00:34:04.298Z,2.45
2022-07-27T00:36:31.598Z,2.50
2022-07-27T00:38:58.886Z,2.60
2022-07-27T00:41:26.271Z,2.65
2022-07-27T00:43:58.525Z,2.72
2022-07-27T00:46:27.631Z,2.33
2022-07-27T00:48:55.126Z,2.22
2022-07-27T00:51:23.235Z,3.20
2022-07-27T00:53:52.636Z,2.35
2022-07-27T00:56:20.514Z,2.42
2022-07-27T00:58:51.508Z,2.90
2022-07-27T01:01:19.591Z,1.95
2022-07-27T01:03:47.937Z,2.50
2022-07-27T01:06:16.198Z,2.40
2022-07-27T01:08:43.861Z,2.78
2022-07-27T01:11:12.074Z,2.38
2022-07-27T01:13:39.539Z,1.95
2022-07-27T01:16:07.589Z,2.35
2022-07-27T01:18:38.194Z,2.58
2022-07-27T01:21:09.395Z,3.45
2022-07-27T01:23:36.837Z,1.88
2022-07-27T01:26:05.613Z,2.83
2022-07-27T01:28:33.026Z,2.30
2022-07-27T01:31:00.534Z,2.38
2022-07-27T01:33:28.022Z,2.47
2022-07-27T01:35:57.312Z,2.35
2022-07-27T01:38:25.135Z,2.17
2022-07-27T01:40:53.902Z,2.67
2022-07-27T01:43:22.234Z,2.70
2022-07-27T01:45:49.980Z,2.67
2022-07-27T01:48:17.539Z,2.80
2022-07-27T01:50:47.608Z,3.03
2022-07-27T01:53:15.198Z,2.60
2022-07-27T01:55:42.528Z,3.03
2022-07-27T01:58:10.230Z,2.42
2022-07-27T02:00:38.108Z,3.42
2022-07-27T02:03:07.472Z,2.63
2022-07-27T02:05:35.650Z,3.03
2022-07-27T02:08:04.551Z,2.92
2022-07-27T02:10:32.277Z,3.08
2022-07-27T02:13:00.109Z,3.17
2022-07-27T02:15:42.922Z,2.97
2022-07-27T02:18:26.684Z,2.72
2022-07-27T02:20:59.329Z,3.33
2022-07-27T02:23:26.887Z,2.97
2022-07-27T02:25:54.312Z,3.38
2022-07-27T02:28:21.994Z,3.03
2022-07-27T02:30:49.380Z,3.72
2022-07-27T02:33:17.211Z,3.85
2022-07-27T02:35:44.738Z,3.63
2022-07-27T02:38:12.117Z,3.42
2022-07-27T02:40:39.544Z,3.60
2022-07-27T02:43:06.894Z,3.67
2022-07-27T02:45:34.214Z,3.40
2022-07-27T02:48:01.587Z,3.60
2022-07-27T02:50:28.938Z,3.08
2022-07-27T02:52:56.338Z,3.88
2022-07-27T02:55:24.357Z,3.47
2022-07-27T02:57:51.768Z,3.83
2022-07-27T03:00:19.358Z,3.53
2022-07-27T03:02:50.228Z,4.05
2022-07-27T03:05:17.759Z,3.92
2022-07-27T03:07:45.351Z,3.28
2022-07-27T03:10:12.704Z,3.42
2022-07-27T03:12:40.295Z,4.55
2022-07-27T03:15:08.210Z,3.67
2022-07-27T03:17:35.606Z,3.55
2022-07-27T03:20:03.209Z,3.20
2022-07-27T03:22:32.598Z,3.60
2022-07-27T03:25:00.787Z,4.18
2022-07-27T03:27:29.121Z,3.88
2022-07-27T03:29:57.271Z,3.90
2022-07-27T03:32:24.843Z,3.50
2022-07-27T03:34:52.235Z,3.60
2022-07-27T03:37:20.071Z,3.60
2022-07-27T03:39:47.439Z,3.75
2022-07-27T03:42:14.843Z,3.35
2022-07-27T03:44:42.309Z,3.63
2022-07-27T03:47:09.788Z,3.90
2022-07-27T03:50:09.597Z,3.75
2022-07-27T03:52:36.946Z,4.25
2022-07-27T03:55:04.727Z,3.67
2022-07-27T03:57:32.091Z,4.00
2022-07-27T03:59:59.584Z,3.70
2022-07-27T04:02:26.955Z,3.80
2022-07-27T04:04:54.412Z,4.00
2022-07-27T04:07:21.722Z,3.67
2022-07-27T04:09:49.048Z,3.35
2022-07-27T04:12:17.644Z,4.35
2022-07-27T04:14:47.487Z,3.90
2022-07-27T04:17:56.075Z,3.33
2022-07-27T04:20:02.207Z,3.17
2022-07-27T04:22:29.694Z,4.05
2022-07-27T04:24:57.180Z,4.47
2022-07-27T04:27:25.966Z,3.67
2022-07-27T04:29:53.398Z,3.67
2022-07-27T04:32:20.817Z,4.60
2022-07-27T04:34:48.280Z,3.22
2022-07-27T04:37:15.817Z,3.60
2022-07-27T04:39:43.254Z,2.88
2022-07-27T04:42:10.584Z,3.70
2022-07-27T04:44:38.289Z,3.05
2022-07-27T04:47:05.709Z,2.42
2022-07-27T04:49:33.071Z,2.15
2022-07-27T04:52:00.411Z,2.72
2022-07-27T04:54:27.821Z,2.30
2022-07-27T04:56:55.336Z,2.42
2022-07-27T04:59:22.729Z,2.58
2022-07-27T05:01:50.210Z,2.75
2022-07-27T05:04:17.659Z,3.17
2022-07-27T05:06:45.007Z,3.13
2022-07-27T05:09:12.980Z,2.75
2022-07-27T05:11:40.616Z,2.85
2022-07-27T05:14:21.292Z,3.38
2022-07-27T05:16:50.074Z,2.35
2022-07-27T05:19:17.542Z,3.00
2022-07-27T05:21:44.999Z,2.80
2022-07-27T05:24:12.437Z,3.15
2022-07-27T05:26:39.792Z,2.65
2022-07-27T05:29:07.176Z,3.40
2022-07-27T05:31:34.715Z,2.97
2022-07-27T05:34:02.102Z,2.90
2022-07-27T05:36:29.479Z,3.28
2022-07-27T05:38:56.888Z,3.40
2022-07-27T05:41:25.811Z,3.17
2022-07-27T05:43:56.848Z,3.28
2022-07-27T05:46:25.604Z,2.80
2022-07-27T05:48:54.855Z,2.13
2022-07-27T05:51:22.285Z,2.95
2022-07-27T05:53:49.710Z,2.75
2022-07-27T05:56:17.014Z,2.50
2022-07-27T05:58:44.443Z,2.17
2022-07-27T06:01:11.831Z,2.45
2022-07-27T06:03:39.319Z,2.85
2022-07-27T06:06:25.252Z,2.40
2022-07-27T06:08:54.031Z,2.47
2022-07-27T06:11:21.683Z,2.70
2022-07-27T06:13:50.644Z,2.45
2022-07-27T06:16:18.930Z,2.55
2022-07-27T06:18:46.349Z,2.60
2022-07-27T06:21:13.809Z,2.88
2022-07-27T06:23:41.257Z,2.05
2022-07-27T06:26:09.348Z,2.28
2022-07-27T06:28:36.730Z,2.08
2022-07-27T06:31:04.117Z,2.47
2022-07-27T06:33:34.261Z,2.28
2022-07-27T06:36:02.568Z,2.30
2022-07-27T06:38:30.110Z,2.53
2022-07-27T06:40:57.939Z,1.90
2022-07-27T06:43:27.652Z,2.10
2022-07-27T06:45:55.218Z,1.88
2022-07-27T06:48:22.793Z,1.85
2022-07-27T06:50:51.516Z,1.92
2022-07-27T06:53:21.313Z,1.73
2022-07-27T06:55:49.993Z,2.00
2022-07-27T06:58:18.122Z,1.50
2022-07-27T07:00:45.997Z,1.90
2022-07-27T07:03:13.435Z,1.42
2022-07-27T07:05:47.101Z,1.40
2022-07-27T07:08:14.910Z,1.45
2022-07-27T07:10:45.869Z,1.42
2022-07-27T07:13:13.800Z,1.65
2022-07-27T07:15:43.219Z,1.70
2022-07-27T07:18:12.417Z,1.58
2022-07-27T07:20:40.431Z,1.65
2022-07-27T07:23:08.367Z,1.70
2022-07-27T07:25:36.670Z,1.42
2022-07-27T07:28:05.651Z,1.48
2022-07-27T07:30:33.970Z,1.80
2022-07-27T07:33:02.349Z,1.63
2022-07-27T07:35:29.976Z,1.77
2022-07-27T07:37:57.322Z,1.30
2022-07-27T07:40:42.553Z,1.40
2022-07-27T07:43:12.712Z,1.25
2022-07-27T07:45:50.860Z,1.58
2022-07-27T07:48:21.295Z,1.65
2022-07-27T07:50:53.279Z,1.10
2022-07-27T07:53:23.570Z,1.13
2022-07-27T07:55:52.848Z,1.27
2022-07-27T07:58:20.901Z,1.50
2022-07-27T08:00:48.490Z,0.95
2022-07-27T08:03:16.382Z,1.40
2022-07-27T08:05:44.157Z,1.50
2022-07-27T08:08:11.586Z,1.42
2022-07-27T08:10:39.000Z,1.70
2022-07-27T08:13:06.673Z,1.58
2022-07-27T08:15:35.757Z,1.40
2022-07-27T08:18:06.892Z,1.30
2022-07-27T08:20:35.362Z,1.77
2022-07-27T08:23:03.626Z,1.63
2022-07-27T08:25:31.718Z,1.50
2022-07-27T08:27:59.370Z,1.33
2022-07-27T08:30:27.275Z,1.02
2022-07-27T08:32:59.911Z,1.02
2022-07-27T08:35:28.430Z,1.08
2022-07-27T08:37:57.150Z,1.20
2022-07-27T08:40:39.798Z,1.27
2022-07-27T08:43:09.411Z,1.30
2022-07-27T08:45:37.716Z,1.02
2022-07-27T08:48:06.388Z,1.02
2022-07-27T08:50:35.294Z,1.45
2022-07-27T08:53:08.960Z,1.30
2022-07-27T08:55:38.488Z,1.50
2022-07-27T08:58:07.530Z,1.20
2022-07-27T09:00:36.138Z,1.60
2022-07-27T09:03:04.093Z,1.65
2022-07-27T09:05:36.923Z,1.60
2022-07-27T09:08:16.947Z,1.17
2022-07-27T09:10:44.739Z,1.30
2022-07-27T09:13:24.012Z,1.52
2022-07-27T09:16:17.564Z,1.10
2022-07-27T09:18:46.824Z,1.20
2022-07-27T09:21:20.870Z,1.08
2022-07-27T09:23:52.892Z,1.20
2022-07-27T09:26:34.192Z,1.10
2022-07-27T09:29:12.858Z,1.20
2022-07-27T09:31:51.804Z,0.85
2022-07-27T09:34:31.145Z,1.35
2022-07-27T09:36:59.141Z,1.38
2022-07-27T09:39:28.075Z,1.23
2022-07-27T09:42:01.319Z,1.25
2022-07-27T09:44:44.053Z,1.23
2022-07-27T09:47:26.875Z,1.10
2022-07-27T09:50:18.311Z,1.63
2022-07-27T09:52:46.900Z,1.30
2022-07-27T09:55:14.503Z,1.10
2022-07-27T09:57:56.512Z,1.00
2022-07-27T10:00:25.740Z,0.90
2022-07-27T10:02:54.182Z,0.90
2022-07-27T10:05:22.782Z,0.93
2022-07-27T10:07:52.867Z,0.80
2022-07-27T10:10:21.691Z,0.95
2022-07-27T10:12:54.519Z,1.00
2022-07-27T10:15:24.437Z,0.80
2022-07-27T10:18:01.834Z,1.20
2022-07-27T10:20:31.775Z,0.95
2022-07-27T10:22:59.572Z,1.10
2022-07-27T10:25:32.473Z,0.85
2022-07-27T10:28:17.475Z,0.95
2022-07-27T10:30:48.253Z,0.90
2022-07-27T10:33:42.623Z,0.98
2022-07-27T10:36:39.356Z,1.13
2022-07-27T10:39:07.930Z,1.20
2022-07-27T10:41:41.731Z,1.02
2022-07-27T10:44:15.379Z,1.00
2022-07-27T10:47:00.573Z,0.80
2022-07-27T10:49:40.178Z,0.98
2022-07-27T10:52:43.584Z,1.25
2022-07-27T10:55:31.351Z,1.02
2022-07-27T10:58:04.223Z,0.95
2022-07-27T11:00:56.768Z,1.10
2022-07-27T11:03:30.789Z,0.90
2022-07-27T11:06:31.515Z,0.93
2022-07-27T11:09:46.446Z,0.90
2022-07-27T11:11:44.951Z,0.88
2022-07-27T11:14:12.933Z,0.88
2022-07-27T11:16:54.988Z,0.88
2022-07-27T11:19:24.615Z,1.08
2022-07-27T11:21:53.856Z,0.88
2022-07-27T11:24:23.458Z,0.90
2022-07-27T11:26:52.669Z,0.82
2022-07-27T11:29:22.725Z,0.80
2022-07-27T11:31:57.799Z,1.02
2022-07-27T11:34:31.402Z,0.50
2022-07-27T11:37:02.091Z,0.85
2022-07-27T11:42:23.420Z,1.02
2022-07-27T11:44:52.963Z,0.73
2022-07-27T11:47:23.943Z,0.77
2022-07-27T11:49:52.127Z,0.70
2022-07-27T11:52:19.694Z,0.70
2022-07-27T11:54:52.416Z,0.70
2022-07-27T11:57:20.614Z,0.60
2022-07-27T11:59:48.215Z,0.52
2022-07-27T12:02:18.019Z,0.75
2022-07-27T12:04:47.630Z,0.68
2022-07-27T12:07:19.781Z,0.75
2022-07-27T12:09:59.517Z,0.88
2022-07-27T12:12:31.506Z,1.25
2022-07-27T12:18:06.516Z,0.60
2022-07-27T12:20:35.583Z,0.60
2022-07-27T12:23:07.822Z,0.70
2022-07-27T12:25:36.302Z,0.70
2022-07-27T12:28:05.705Z,0.52
2022-07-27T12:30:42.094Z,0.77
2022-07-27T12:33:34.751Z,0.60
2022-07-27T12:36:04.185Z,0.50
2022-07-27T12:38:46.464Z,0.47
2022-07-27T12:41:29.571Z,0.50
2022-07-27T12:44:10.916Z,0.60
2022-07-27T12:46:55.656Z,0.40
2022-07-27T12:49:29.439Z,0.50
2022-07-27T12:52:09.524Z,0.70
2022-07-27T12:54:38.069Z,0.60
2022-07-27T12:57:05.465Z,0.50
2022-07-27T12:59:32.872Z,0.80
2022-07-27T13:02:00.632Z,0.75
2022-07-27T13:04:28.352Z,0.85
2022-07-27T13:06:55.790Z,1.02
2022-07-27T13:09:23.387Z,1.00
2022-07-27T13:11:50.848Z,0.80
2022-07-27T13:14:18.316Z,0.80
2022-07-27T13:16:45.738Z,0.82
2022-07-27T13:19:16.527Z,1.00
2022-07-27T13:21:44.535Z,0.80
2022-07-27T13:24:11.933Z,0.98
2022-07-27T13:26:40.987Z,1.00
2022-07-27T13:29:08.381Z,0.63
2022-07-27T13:31:37.027Z,1.00
2022-07-27T13:34:04.545Z,1.00
2022-07-27T13:36:31.984Z,1.00
2022-07-27T13:38:59.443Z,1.17
2022-07-27T13:41:26.879Z,1.10
2022-07-27T13:43:54.192Z,1.08
2022-07-27T13:46:21.689Z,0.90
2022-07-27T13:48:49.162Z,1.10
2022-07-27T13:51:16.526Z,0.75
2022-07-27T13:53:43.897Z,0.70
2022-07-27T13:56:11.227Z,0.77
2022-07-27T13:58:40.994Z,1.10
2022-07-27T14:01:08.721Z,0.85
2022-07-27T14:03:36.383Z,0.90
2022-07-27T14:06:03.863Z,0.90
2022-07-27T14:08:33.871Z,1.20
2022-07-27T14:11:02.219Z,0.98
2022-07-27T14:13:32.662Z,0.73
2022-07-27T14:16:01.030Z,1.05
2022-07-27T14:18:30.479Z,1.52
2022-07-27T14:21:00.374Z,1.23
2022-07-27T14:23:28.459Z,1.23
2022-07-27T14:25:57.962Z,0.93
2022-07-27T14:28:26.063Z,0.98
2022-07-27T14:30:53.823Z,1.38
2022-07-27T14:33:22.469Z,1.40
2022-07-27T14:35:50.523Z,1.00
2022-07-27T14:38:28.377Z,1.40
2022-07-27T14:41:00.599Z,1.27
2022-07-27T14:43:29.107Z,1.48
2022-07-27T14:45:57.015Z,1.65
2022-07-27T14:48:42.164Z,1.45
2022-07-27T14:51:12.125Z,1.20
2022-07-27T14:53:39.558Z,1.20
2022-07-27T14:56:06.946Z,1.88
2022-07-27T14:58:34.359Z,1.08
2022-07-27T15:01:02.034Z,0.98
2022-07-27T15:03:29.431Z,1.27
2022-07-27T15:05:57.225Z,1.15
2022-07-27T15:08:24.591Z,1.30
2022-07-27T15:10:51.955Z,0.93
2022-07-27T15:13:19.389Z,1.15
2022-07-27T15:15:52.516Z,1.30
2022-07-27T15:18:21.027Z,1.00
2022-07-27T15:20:48.522Z,1.50
2022-07-27T15:23:16.316Z,1.05
2022-07-27T15:25:43.664Z,1.00
2022-07-27T15:28:11.929Z,0.90
2022-07-27T15:30:39.367Z,1.15
2022-07-27T15:33:07.419Z,1.00
2022-07-27T15:35:34.986Z,0.85
2022-07-27T15:38:02.555Z,1.10
2022-07-27T15:40:40.081Z,1.05
2022-07-27T15:43:13.675Z,1.02
2022-07-27T15:45:43.077Z,1.13
2022-07-27T15:48:12.225Z,1.55
2022-07-27T15:50:41.883Z,1.25
2022-07-27T15:53:09.941Z,1.10
2022-07-27T15:55:37.839Z,1.10
2022-07-27T15:58:06.576Z,1.30
2022-07-27T16:00:40.519Z,0.77
2022-07-27T16:03:10.526Z,1.10
2022-07-27T16:05:39.361Z,1.40
2022-07-27T16:08:09.623Z,1.50
2022-07-27T16:10:41.664Z,1.02
2022-07-27T16:13:10.883Z,1.20
2022-07-27T16:15:56.748Z,1.08
2022-07-27T16:18:24.243Z,1.30
2022-07-27T16:20:52.426Z,1.15
2022-07-27T16:23:21.653Z,1.08
2022-07-27T16:26:04.027Z,1.00
2022-07-27T16:28:34.856Z,0.90
2022-07-27T16:31:02.888Z,1.25
2022-07-27T16:33:30.565Z,0.95
2022-07-27T16:35:58.306Z,1.02
2022-07-27T16:38:25.775Z,1.42
2022-07-27T16:40:53.196Z,1.58
2022-07-27T16:43:20.585Z,0.85
2022-07-27T16:45:47.970Z,1.25
2022-07-27T16:48:15.341Z,1.20
2022-07-27T16:50:42.671Z,1.05
2022-07-27T16:53:10.634Z,1.25
2022-07-27T16:55:37.991Z,1.00
2022-07-27T16:58:05.468Z,1.30
2022-07-27T17:00:38.191Z,1.23
2022-07-27T17:03:10.087Z,1.05
2022-07-27T17:05:37.599Z,0.80
2022-07-27T17:08:06.075Z,1.30
2022-07-27T17:10:33.459Z,1.40
2022-07-27T17:13:01.633Z,1.02
2022-07-27T17:15:29.028Z,1.10
2022-07-27T17:17:56.472Z,1.20
2022-07-27T17:20:28.106Z,1.13
2022-07-27T17:23:04.477Z,1.30
2022-07-27T17:25:31.855Z,1.00
2022-07-27T17:27:59.215Z,1.35
2022-07-27T17:30:26.544Z,1.15
2022-07-27T17:32:54.117Z,1.00
2022-07-27T17:35:21.504Z,1.10
2022-07-27T17:38:05.745Z,1.05
2022-07-27T17:40:35.527Z,1.08
2022-07-27T17:43:03.029Z,1.00
2022-07-27T17:45:31.274Z,1.40
2022-07-27T17:47:58.666Z,0.90
2022-07-27T17:50:26.288Z,1.10
2022-07-27T17:52:56.378Z,1.05
2022-07-27T17:55:23.832Z,1.13
2022-07-27T17:57:51.318Z,1.20
2022-07-27T18:00:18.795Z,1.48
2022-07-27T18:02:46.513Z,1.00
2022-07-27T18:05:14.490Z,1.05
2022-07-27T18:07:41.782Z,0.80
2022-07-27T18:10:09.633Z,1.08
2022-07-27T18:12:37.275Z,1.60
2022-07-27T18:15:23.497Z,1.23
2022-07-27T18:17:50.881Z,1.25
2022-07-27T18:20:18.258Z,1.00
2022-07-27T18:22:45.609Z,1.00
2022-07-27T18:25:13.206Z,1.40
2022-07-27T18:27:40.865Z,1.20
2022-07-27T18:30:08.792Z,1.30
2022-07-27T18:32:36.903Z,1.08
2022-07-27T18:35:05.408Z,1.25
2022-07-27T18:37:32.741Z,1.20
2022-07-27T18:40:00.688Z,1.40
2022-07-27T18:42:28.044Z,1.10
2022-07-27T18:44:55.430Z,1.33
2022-07-27T18:47:22.956Z,1.02
2022-07-27T18:49:50.289Z,1.25
2022-07-27T18:52:17.787Z,1.17
2022-07-27T18:54:45.127Z,1.27
2022-07-27T18:57:12.500Z,1.20
2022-07-27T18:59:40.858Z,0.90
2022-07-27T19:02:09.002Z,0.90
2022-07-27T19:04:36.686Z,1.15
2022-07-27T19:07:06.390Z,0.98
2022-07-27T19:09:34.512Z,1.25
2022-07-27T19:12:05.994Z,1.27
2022-07-27T19:14:37.264Z,1.00
2022-07-27T19:17:05.508Z,1.35
2022-07-27T19:19:32.940Z,1.60
2022-07-27T19:22:00.404Z,1.17
2022-07-27T19:24:28.105Z,1.00
2022-07-27T19:26:55.536Z,0.90
2022-07-27T19:29:23.029Z,1.20
2022-07-27T19:31:50.562Z,1.20
2022-07-27T19:34:18.434Z,1.20
2022-07-27T19:36:46.066Z,1.20
2022-07-27T19:39:13.942Z,1.45
2022-07-27T19:41:41.926Z,1.52
2022-07-27T19:44:09.808Z,1.20
2022-07-27T19:46:37.885Z,1.20
2022-07-27T19:49:05.360Z,1.48
2022-07-27T19:51:32.805Z,1.13
2022-07-27T19:54:00.354Z,1.15
2022-07-27T19:56:27.888Z,1.40
2022-07-27T19:58:55.231Z,1.08
2022-07-27T20:01:22.769Z,1.25
2022-07-27T20:03:54.524Z,1.60
2022-07-27T20:06:23.983Z,1.80
2022-07-27T20:08:53.892Z,1.55
2022-07-27T20:11:21.279Z,1.17
2022-07-27T20:13:48.649Z,1.67
2022-07-27T20:16:17.709Z,1.40
2022-07-27T20:18:45.269Z,1.40
2022-07-27T20:21:20.115Z,1.33
2022-07-27T20:23:52.615Z,1.25
2022-07-27T20:26:20.685Z,1.35
2022-07-27T20:28:49.784Z,1.45
2022-07-27T20:31:17.663Z,1.75
2022-07-27T20:33:45.122Z,1.40
2022-07-27T20:36:12.577Z,1.20
2022-07-27T20:38:39.975Z,1.30
2022-07-27T20:41:07.286Z,1.20
2022-07-27T20:43:34.794Z,1.42
2022-07-27T20:46:03.500Z,1.38
2022-07-27T20:48:31.149Z,1.17
2022-07-27T20:50:59.773Z,1.63
2022-07-27T20:53:27.183Z,1.33
2022-07-27T20:55:54.591Z,1.35
2022-07-27T20:58:22.089Z,1.88
2022-07-27T21:00:49.754Z,1.30
2022-07-27T21:03:17.195Z,1.15
2022-07-27T21:05:44.706Z,1.20
2022-07-27T21:08:12.072Z,2.15
2022-07-27T21:10:39.492Z,1.20
2022-07-27T21:13:06.927Z,1.13
2022-07-27T21:15:34.508Z,1.20
2022-07-27T21:18:02.462Z,1.20
2022-07-27T21:20:30.064Z,0.88
2022-07-27T21:23:15.719Z,1.77
2022-07-27T21:25:43.993Z,1.30
2022-07-27T21:28:16.865Z,1.20
2022-07-27T21:30:47.435Z,1.23
2022-07-27T21:33:15.281Z,1.50
2022-07-27T21:35:42.633Z,1.45
2022-07-27T21:38:10.078Z,1.30
2022-07-27T21:40:37.500Z,1.40
2022-07-27T21:43:04.829Z,1.45
2022-07-27T21:45:32.364Z,1.17
2022-07-27T21:47:59.784Z,1.30
2022-07-27T21:50:27.475Z,1.02
2022-07-27T21:52:55.219Z,1.02
2022-07-27T21:55:23.351Z,1.13
2022-07-27T21:57:51.352Z,1.33
2022-07-27T22:00:24.260Z,1.40
2022-07-27T22:02:52.631Z,1.40
2022-07-27T22:05:22.562Z,1.67
2022-07-27T22:07:51.234Z,1.33
2022-07-27T22:10:19.556Z,1.20
2022-07-27T22:12:47.067Z,1.10
2022-07-27T22:15:14.439Z,1.20
2022-07-27T22:17:50.142Z,1.20
2022-07-27T22:20:19.305Z,1.15
2022-07-27T22:22:47.297Z,1.23
2022-07-27T22:25:14.907Z,1.60
2022-07-27T22:27:42.352Z,1.00
2022-07-27T22:30:10.288Z,1.77
2022-07-27T22:32:37.732Z,1.17
2022-07-27T22:35:05.657Z,0.90
2022-07-27T22:37:33.083Z,0.98
2022-07-27T22:40:00.469Z,1.02
2022-07-27T22:42:28.202Z,1.55
2022-07-27T22:44:55.629Z,1.30
2022-07-27T22:47:23.381Z,1.10
2022-07-27T22:49:51.007Z,1.30
2022-07-27T22:52:18.655Z,1.50
2022-07-27T22:54:46.153Z,1.40
2022-07-27T22:57:13.523Z,1.27
2022-07-27T22:59:41.001Z,1.45
2022-07-27T23:02:08.831Z,1.48
2022-07-27T23:04:36.394Z,0.70
2022-07-27T23:07:03.983Z,1.08
2022-07-27T23:09:31.363Z,1.20
2022-07-27T23:11:58.776Z,1.73
2022-07-27T23:14:26.169Z,1.05
2022-07-27T23:16:53.634Z,1.50
2022-07-27T23:19:21.058Z,1.40
2022-07-27T23:21:49.190Z,1.33
2022-07-27T23:24:28.723Z,1.10
2022-07-27T23:26:56.892Z,1.17
2022-07-27T23:29:24.230Z,0.90
2022-07-27T23:31:51.810Z,1.30
2022-07-27T23:34:20.179Z,1.42
2022-07-27T23:36:47.466Z,1.60
2022-07-27T23:39:14.845Z,1.20
2022-07-27T23:41:45.316Z,1.00
2022-07-27T23:44:17.143Z,1.00
2022-07-27T23:46:44.739Z,1.42
2022-07-27T23:49:12.176Z,1.13
2022-07-27T23:51:39.550Z,1.63
2022-07-27T23:54:06.959Z,1.33
2022-07-27T23:56:34.332Z,1.80
2022-07-27T23:59:01.664Z,1.30
